Time;durP1;ratioP1;P1;durP2;ratioP2;P2;SDS_P1;SDS_P2;PMS_P1;PMS_P2;Temp;Humidity;BMP_temperature;BMP_pressure;BME280_temperature;BME280_humidity;BME280_pressure;Samples;Min_cycle;Max_cycle;Signal;HPM_P1;HPM_P2
2022/12/21 00:01:12;;;;;;;24.00;15.80;;;4.20;99.90;;;;;;5017197;28;20261;-78
2022/12/21 00:03:39;;;;;;;21.80;16.13;;;4.20;99.90;;;;;;5017435;28;20199;-80
2022/12/21 00:06:06;;;;;;;22.43;16.87;;;4.20;99.90;;;;;;5016154;28;20210;-78
2022/12/21 00:08:36;;;;;;;22.13;16.40;;;4.20;99.90;;;;;;5016078;28;20219;-78
2022/12/21 00:11:02;;;;;;;20.53;16.00;;;4.20;99.90;;;;;;5016467;28;20236;-78
2022/12/21 00:13:30;;;;;;;19.00;15.60;;;4.20;99.90;;;;;;5016984;28;20206;-78
2022/12/21 00:15:57;;;;;;;25.00;15.30;;;4.10;99.90;;;;;;5017938;28;20225;-77
2022/12/21 00:18:26;;;;;;;21.83;16.43;;;4.10;99.90;;;;;;5018450;28;20209;-77
2022/12/21 00:21:00;;;;;;;20.83;15.97;;;4.00;99.90;;;;;;5018214;28;20605;-77
2022/12/21 00:23:27;;;;;;;21.40;16.33;;;4.00;99.90;;;;;;5018413;28;20202;-77
2022/12/21 00:25:53;;;;;;;21.83;16.23;;;4.00;99.90;;;;;;5018467;28;20198;-77
2022/12/21 00:28:20;;;;;;;21.57;16.53;;;4.00;99.90;;;;;;5018142;28;20252;-77
2022/12/21 00:30:47;;;;;;;22.27;16.00;;;4.00;99.90;;;;;;5018702;28;20195;-77
2022/12/21 00:33:13;;;;;;;21.00;15.87;;;4.00;99.90;;;;;;5018812;28;20210;-77
2022/12/21 00:35:41;;;;;;;20.67;15.80;;;4.00;99.90;;;;;;5018277;28;20201;-77
2022/12/21 00:38:08;;;;;;;20.50;16.30;;;4.00;99.90;;;;;;5015710;28;20249;-77
2022/12/21 00:40:34;;;;;;;22.27;16.90;;;4.00;99.90;;;;;;5014877;28;20210;-77
2022/12/21 00:43:01;;;;;;;22.10;17.60;;;4.00;99.90;;;;;;5015006;28;20249;-76
2022/12/21 00:45:27;;;;;;;19.67;16.30;;;4.00;99.90;;;;;;5017020;28;20288;-78
2022/12/21 00:47:54;;;;;;;20.77;16.70;;;3.90;99.90;;;;;;5017101;28;20626;-77
2022/12/21 00:50:20;;;;;;;22.60;16.67;;;3.90;99.90;;;;;;5016913;28;20292;-77
2022/12/21 00:52:49;;;;;;;22.40;16.43;;;3.90;99.90;;;;;;5019521;28;20713;-78
2022/12/21 00:55:15;;;;;;;24.80;17.50;;;3.90;99.90;;;;;;5022553;28;20206;-78
2022/12/21 00:57:42;;;;;;;25.57;16.73;;;3.90;99.90;;;;;;5020932;28;20659;-77
2022/12/21 01:00:10;;;;;;;21.00;16.20;;;3.90;99.90;;;;;;5020740;28;20202;-77
2022/12/21 01:02:36;;;;;;;22.30;16.73;;;3.90;99.90;;;;;;5017221;28;20198;-77
2022/12/21 01:05:04;;;;;;;21.93;16.27;;;3.90;99.90;;;;;;5017436;28;20252;-77
2022/12/21 01:07:30;;;;;;;22.37;17.03;;;3.90;99.90;;;;;;5017118;28;20270;-77
2022/12/21 01:09:58;;;;;;;22.17;17.57;;;3.90;99.90;;;;;;5022185;28;20223;-78
2022/12/21 01:12:25;;;;;;;23.43;16.33;;;3.90;99.90;;;;;;5023652;28;20203;-78
2022/12/21 01:14:51;;;;;;;23.60;17.13;;;3.90;99.90;;;;;;5024785;28;20229;-77
2022/12/21 01:17:18;;;;;;;22.23;16.60;;;3.90;99.90;;;;;;5023912;28;20226;-78
2022/12/21 01:19:45;;;;;;;25.23;17.70;;;3.90;99.90;;;;;;5024451;28;20248;-78
2022/12/21 01:22:12;;;;;;;27.27;18.10;;;4.00;99.90;;;;;;5023383;28;20202;-77
2022/12/21 01:24:38;;;;;;;24.27;17.73;;;4.00;99.90;;;;;;5020676;28;20542;-78
2022/12/21 01:27:06;;;;;;;21.10;17.50;;;4.00;99.90;;;;;;5024315;28;20544;-78
2022/12/21 01:29:33;;;;;;;20.97;16.93;;;4.10;99.90;;;;;;5023309;28;20280;-78
2022/12/21 01:31:59;;;;;;;21.17;17.57;;;4.10;99.90;;;;;;5022477;28;20209;-78
2022/12/21 01:34:26;;;;;;;25.63;17.77;;;4.10;99.90;;;;;;5024850;28;20269;-78
2022/12/21 01:36:53;;;;;;;24.57;18.63;;;4.10;99.90;;;;;;5022447;28;20613;-77
2022/12/21 01:39:20;;;;;;;26.10;19.33;;;4.20;99.90;;;;;;5020876;28;20230;-78
2022/12/21 01:41:46;;;;;;;25.27;19.60;;;4.20;99.90;;;;;;5016322;28;20205;-77
2022/12/21 01:44:59;;;;;;;22.73;18.60;;;4.20;99.90;;;;;;5015683;28;20199;-77
2022/12/21 01:47:31;;;;;;;25.80;17.37;;;4.30;99.90;;;;;;4991350;28;20281;-77
2022/12/21 01:50:01;;;;;;;21.17;17.57;;;4.30;99.90;;;;;;5015497;28;20223;-77
2022/12/21 01:52:29;;;;;;;29.10;20.43;;;4.30;99.90;;;;;;5015492;28;20203;-77
2022/12/21 01:54:59;;;;;;;24.60;19.10;;;4.30;99.90;;;;;;5015236;28;20289;-77
2022/12/21 01:57:29;;;;;;;26.07;19.23;;;4.30;99.90;;;;;;5015727;28;20194;-77
2022/12/21 01:59:59;;;;;;;28.17;19.63;;;4.30;99.90;;;;;;5015187;28;20210;-76
2022/12/21 02:02:35;;;;;;;32.30;21.20;;;4.40;99.90;;;;;;5014943;28;20209;-77
2022/12/21 02:05:11;;;;;;;33.17;20.63;;;4.40;99.90;;;;;;5013927;28;20285;-77
2022/12/21 02:07:39;;;;;;;38.53;22.37;;;4.40;99.90;;;;;;5013819;28;20567;-76
2022/12/21 02:10:07;;;;;;;35.30;22.03;;;4.50;99.90;;;;;;5013521;28;20269;-77
2022/12/21 02:12:36;;;;;;;31.33;19.57;;;4.50;99.90;;;;;;5013175;28;20682;-77
2022/12/21 02:15:04;;;;;;;34.93;21.33;;;4.60;99.90;;;;;;5013355;28;20278;-77
2022/12/21 02:17:42;;;;;;;28.43;19.00;;;4.60;99.90;;;;;;5013386;28;20203;-77
2022/12/21 02:20:36;;;;;;;35.43;18.87;;;4.60;99.90;;;;;;5013010;28;20206;-77
2022/12/21 02:23:42;;;;;;;29.47;20.00;;;4.60;99.90;;;;;;5013215;28;20582;-76
2022/12/21 02:26:25;;;;;;;31.70;19.13;;;4.70;99.90;;;;;;5007324;28;20253;-77
2022/12/21 02:29:21;;;;;;;31.10;19.57;;;4.70;99.90;;;;;;5013002;28;20199;-77
2022/12/21 02:31:59;;;;;;;27.67;17.20;;;4.80;99.90;;;;;;5013160;28;20202;-77
2022/12/21 02:34:34;;;;;;;24.23;16.67;;;4.80;99.90;;;;;;5020338;28;20266;-77
2022/12/21 02:37:06;;;;;;;23.23;17.13;;;4.80;99.90;;;;;;5013145;28;20252;-77
2022/12/21 02:39:43;;;;;;;21.33;16.07;;;4.90;99.90;;;;;;5016103;28;20199;-77
2022/12/21 02:45:10;;;;;;;23.40;17.33;;;4.90;99.90;;;;;;5016147;28;20590;-77
2022/12/21 02:47:45;;;;;;;24.40;17.47;;;4.90;99.90;;;;;;5016442;28;20199;-77
2022/12/21 02:50:14;;;;;;;27.60;17.40;;;4.90;99.90;;;;;;5016193;28;20321;-77
2022/12/21 02:52:46;;;;;;;25.47;18.53;;;4.90;99.90;;;;;;5016449;28;20207;-77
2022/12/21 02:55:14;;;;;;;28.57;19.50;;;4.90;99.90;;;;;;5016436;28;20245;-77
2022/12/21 02:57:42;;;;;;;25.97;18.57;;;4.90;99.90;;;;;;5016295;28;20264;-77
2022/12/21 03:00:13;;;;;;;24.97;18.10;;;4.90;99.90;;;;;;5016243;28;20214;-77
2022/12/21 03:05:50;;;;;;;20.03;16.47;;;5.00;99.90;;;;;;5015717;28;20191;-78
2022/12/21 03:08:26;;;;;;;27.90;18.20;;;5.00;99.90;;;;;;5016031;28;20203;-78
2022/12/21 03:10:59;;;;;;;23.37;17.70;;;5.00;99.90;;;;;;5015814;28;20713;-77
2022/12/21 03:13:36;;;;;;;23.50;18.03;;;5.10;99.90;;;;;;5016115;28;20199;-77
2022/12/21 03:16:12;;;;;;;28.20;17.90;;;5.10;99.90;;;;;;5015787;28;20666;-77
2022/12/21 03:18:49;;;;;;;26.90;18.27;;;5.10;99.90;;;;;;5015897;28;20203;-78
2022/12/21 03:21:21;;;;;;;25.27;18.73;;;5.00;99.90;;;;;;5015756;28;20269;-77
2022/12/21 03:23:54;;;;;;;24.63;19.07;;;5.00;99.90;;;;;;5016091;28;20199;-77
2022/12/21 03:26:26;;;;;;;23.83;19.07;;;5.00;99.90;;;;;;5015912;28;20203;-78
2022/12/21 03:28:54;;;;;;;29.30;18.80;;;5.00;99.90;;;;;;5015633;28;20614;-77
2022/12/21 03:31:25;;;;;;;27.93;18.83;;;5.00;99.90;;;;;;5015602;28;20227;-78
2022/12/21 03:33:59;;;;;;;27.03;19.17;;;5.00;99.90;;;;;;5015536;28;20203;-77
2022/12/21 03:36:31;;;;;;;26.63;20.83;;;5.00;99.90;;;;;;5015736;28;20240;-78
2022/12/21 03:39:02;;;;;;;24.37;19.07;;;5.00;99.90;;;;;;5015738;28;20206;-78
2022/12/21 03:41:32;;;;;;;26.23;20.10;;;5.00;99.90;;;;;;5015488;28;20202;-78
2022/12/21 03:44:02;;;;;;;27.37;19.70;;;5.00;99.90;;;;;;5015630;28;20606;-78
2022/12/21 03:46:34;;;;;;;28.17;21.10;;;5.00;99.90;;;;;;5015604;28;20241;-78
2022/12/21 03:49:08;;;;;;;29.47;21.53;;;5.10;99.90;;;;;;5015057;28;20195;-77
2022/12/21 03:51:39;;;;;;;27.03;20.60;;;5.00;99.90;;;;;;5015435;28;20231;-77
2022/12/21 03:54:14;;;;;;;28.77;21.33;;;5.00;99.90;;;;;;5015253;28;20254;-77
2022/12/21 03:56:42;;;;;;;30.60;22.07;;;5.00;99.90;;;;;;5015190;28;20204;-76
2022/12/21 03:59:11;;;;;;;32.97;22.60;;;5.00;99.90;;;;;;5015383;28;20613;-77
2022/12/21 04:01:47;;;;;;;33.20;22.63;;;5.10;99.90;;;;;;5015203;28;20199;-77
2022/12/21 04:04:23;;;;;;;31.30;22.73;;;5.10;99.90;;;;;;5015055;28;20539;-77
2022/12/21 04:06:51;;;;;;;30.73;22.57;;;5.10;99.90;;;;;;5014982;28;20202;-78
2022/12/21 04:09:18;;;;;;;30.07;22.50;;;5.10;99.90;;;;;;5016369;28;20284;-77
2022/12/21 04:14:29;;;;;;;32.67;23.17;;;5.20;99.90;;;;;;5016833;28;20553;-77
2022/12/21 04:16:56;;;;;;;33.93;24.50;;;5.20;99.90;;;;;;5015663;28;20250;-77
2022/12/21 04:22:09;;;;;;;32.80;23.10;;;5.10;99.90;;;;;;5015713;28;20337;-79
2022/12/21 04:30:05;;;;;;;35.27;24.53;;;5.10;99.90;;;;;;5014757;28;20324;-78
2022/12/21 04:32:32;;;;;;;31.97;23.60;;;5.10;99.90;;;;;;5014356;28;20262;-78
2022/12/21 04:35:00;;;;;;;29.60;22.87;;;5.00;99.90;;;;;;5014540;28;20199;-78
2022/12/21 04:37:31;;;;;;;33.40;23.93;;;5.00;99.90;;;;;;5014298;28;20265;-78
2022/12/21 04:39:58;;;;;;;31.20;22.57;;;5.00;99.90;;;;;;5014544;28;20203;-78
2022/12/21 04:42:25;;;;;;;31.27;22.97;;;5.00;99.90;;;;;;5014209;28;20202;-78
2022/12/21 04:44:52;;;;;;;32.87;23.07;;;5.00;99.90;;;;;;5013950;28;20253;-78
2022/12/21 04:47:18;;;;;;;31.47;23.30;;;4.90;99.90;;;;;;5014472;28;20559;-77
2022/12/21 04:49:45;;;;;;;33.10;24.43;;;4.90;99.90;;;;;;5014223;28;20215;-78
2022/12/21 04:52:13;;;;;;;29.73;23.67;;;4.90;99.90;;;;;;5014186;28;20199;-78
2022/12/21 04:54:40;;;;;;;33.93;24.57;;;5.00;99.90;;;;;;5014043;28;20567;-78
2022/12/21 04:57:06;;;;;;;38.00;24.60;;;4.90;99.90;;;;;;5013966;28;20195;-78
2022/12/21 04:59:33;;;;;;;31.67;23.97;;;4.90;99.90;;;;;;5014038;28;20265;-78
2022/12/21 05:01:59;;;;;;;30.13;22.33;;;4.90;99.90;;;;;;5013259;28;20203;-79
2022/12/21 05:04:26;;;;;;;32.23;23.10;;;5.00;99.90;;;;;;5013891;28;20602;-77
2022/12/21 05:06:54;;;;;;;29.63;23.20;;;4.90;99.90;;;;;;5013812;28;20675;-77
2022/12/21 05:09:25;;;;;;;29.43;22.27;;;4.90;99.90;;;;;;5013849;28;20548;-78
2022/12/21 05:11:51;;;;;;;28.93;22.40;;;4.90;99.90;;;;;;5004385;28;20235;-78
2022/12/21 05:14:18;;;;;;;33.20;23.87;;;5.00;99.90;;;;;;4994248;28;20230;-78
2022/12/21 05:16:45;;;;;;;35.03;24.00;;;4.90;99.90;;;;;;4994215;28;20203;-78
2022/12/21 05:19:11;;;;;;;32.87;23.90;;;4.90;99.90;;;;;;4993886;28;20580;-78
2022/12/21 05:21:38;;;;;;;33.20;23.77;;;5.00;99.90;;;;;;4993978;28;20203;-78
2022/12/21 05:24:05;;;;;;;33.73;24.00;;;5.00;99.90;;;;;;4993754;28;20204;-77
2022/12/21 05:26:33;;;;;;;33.93;23.73;;;5.00;99.90;;;;;;4993969;28;20200;-78
2022/12/21 05:29:00;;;;;;;34.53;23.33;;;5.00;99.90;;;;;;4993938;28;20200;-79
2022/12/21 05:31:27;;;;;;;32.20;22.90;;;5.10;99.90;;;;;;4993830;28;20274;-78
2022/12/21 05:33:53;;;;;;;30.97;22.67;;;5.10;99.90;;;;;;4993773;28;20258;-78
2022/12/21 05:36:20;;;;;;;32.17;23.53;;;5.10;99.90;;;;;;4993660;28;20254;-77
2022/12/21 05:38:47;;;;;;;33.93;24.20;;;5.20;99.90;;;;;;4993595;28;20200;-77
2022/12/21 05:41:14;;;;;;;35.37;26.43;;;5.20;99.90;;;;;;4993875;28;20200;-77
2022/12/21 05:43:42;;;;;;;31.03;22.70;;;5.30;99.90;;;;;;4993760;28;20246;-77
2022/12/21 05:46:12;;;;;;;28.80;21.43;;;5.20;99.90;;;;;;4993263;28;20769;-77
2022/12/21 05:48:39;;;;;;;30.23;21.93;;;5.30;99.90;;;;;;4993655;28;20203;-76
2022/12/21 05:51:10;;;;;;;86.80;51.57;;;5.40;99.90;;;;;;4993478;28;20441;-77
2022/12/21 05:53:37;;;;;;;30.67;22.17;;;5.60;99.90;;;;;;4994020;28;20204;-76
2022/12/21 05:56:04;;;;;;;34.77;23.13;;;5.80;99.90;;;;;;4993672;28;20310;-76
2022/12/21 05:58:31;;;;;;;29.87;22.77;;;6.10;99.90;;;;;;4993371;28;20710;-76
2022/12/21 06:01:01;;;;;;;31.63;21.90;;;6.00;99.90;;;;;;4993625;28;20262;-76
2022/12/21 06:03:28;;;;;;;24.67;18.60;;;6.00;99.90;;;;;;4993452;28;20207;-77
2022/12/21 06:06:01;;;;;;;73.87;44.00;;;6.10;99.90;;;;;;4994572;28;20727;-77
2022/12/21 06:08:29;;;;;;;33.17;21.83;;;6.20;99.90;;;;;;4997943;28;20643;-76
2022/12/21 06:10:56;;;;;;;28.63;21.83;;;6.20;99.90;;;;;;4993542;28;20587;-76
2022/12/21 06:13:22;;;;;;;26.43;19.60;;;6.50;99.90;;;;;;4996613;28;20204;-76
2022/12/21 06:15:49;;;;;;;69.40;43.73;;;6.50;99.90;;;;;;4997460;28;20203;-76
2022/12/21 06:18:17;;;;;;;25.77;19.87;;;6.40;99.90;;;;;;4997127;28;20671;-76
2022/12/21 06:20:51;;;;;;;28.53;20.70;;;6.60;99.90;;;;;;4997396;28;20258;-76
2022/12/21 06:23:18;;;;;;;36.90;24.37;;;6.60;99.90;;;;;;4997298;28;20258;-76
2022/12/21 06:25:44;;;;;;;40.20;26.43;;;6.50;99.90;;;;;;4997151;28;20200;-76
2022/12/21 06:28:11;;;;;;;26.57;17.90;;;6.50;99.90;;;;;;4997039;28;20559;-76
2022/12/21 06:30:38;;;;;;;24.70;17.87;;;6.50;99.90;;;;;;4996803;28;20246;-75
2022/12/21 06:33:04;;;;;;;22.20;16.67;;;6.70;99.90;;;;;;4996781;28;20200;-76
2022/12/21 06:35:33;;;;;;;27.97;16.83;;;6.70;99.90;;;;;;4996969;28;20200;-77
2022/12/21 06:37:59;;;;;;;22.53;15.37;;;6.70;99.90;;;;;;4996727;28;20230;-76
2022/12/21 06:40:26;;;;;;;21.37;16.07;;;6.70;99.90;;;;;;4996741;28;20231;-77
2022/12/21 06:42:53;;;;;;;21.40;14.83;;;6.70;99.90;;;;;;4996726;28;20560;-77
2022/12/21 06:45:19;;;;;;;23.57;16.97;;;6.80;99.90;;;;;;4996419;28;20227;-76
2022/12/21 06:47:46;;;;;;;23.33;16.43;;;6.80;99.90;;;;;;4996472;28;20575;-76
2022/12/21 06:50:12;;;;;;;23.13;16.73;;;6.90;99.90;;;;;;4996501;28;20537;-76
2022/12/21 06:52:40;;;;;;;25.57;17.90;;;6.90;99.90;;;;;;4996710;28;20262;-76
2022/12/21 06:55:08;;;;;;;25.47;18.40;;;6.80;99.90;;;;;;4996551;28;20207;-76
2022/12/21 06:57:35;;;;;;;25.43;18.60;;;6.80;99.90;;;;;;4996458;28;20278;-76
2022/12/21 07:00:02;;;;;;;29.23;20.17;;;6.80;99.90;;;;;;4996447;28;20203;-76
2022/12/21 07:02:28;;;;;;;31.13;21.23;;;6.70;99.90;;;;;;4996483;28;20578;-76
2022/12/21 07:04:55;;;;;;;29.67;21.07;;;6.70;99.90;;;;;;4996506;28;20211;-75
2022/12/21 07:07:21;;;;;;;32.50;22.67;;;6.50;99.90;;;;;;4996540;28;20200;-76
2022/12/21 07:09:50;;;;;;;35.80;22.83;;;6.40;99.90;;;;;;4996229;28;20200;-77
2022/12/21 07:12:16;;;;;;;30.17;22.90;;;6.40;99.90;;;;;;4996054;28;20289;-77
2022/12/21 07:14:43;;;;;;;33.80;24.13;;;6.40;99.90;;;;;;4996148;28;20207;-77
2022/12/21 07:17:10;;;;;;;35.37;24.30;;;6.40;99.90;;;;;;4996299;28;20227;-77
2022/12/21 07:19:37;;;;;;;33.63;24.13;;;6.30;99.90;;;;;;4996118;28;20230;-77
2022/12/21 07:22:03;;;;;;;41.40;25.27;;;6.30;99.90;;;;;;4995881;28;20742;-76
2022/12/21 07:24:30;;;;;;;36.83;24.97;;;6.30;99.90;;;;;;4995309;28;20199;-76
2022/12/21 07:26:58;;;;;;;32.63;23.77;;;6.30;99.90;;;;;;4995828;28;20262;-76
2022/12/21 07:29:24;;;;;;;31.20;23.90;;;6.30;99.90;;;;;;4995765;28;20204;-77
2022/12/21 07:31:52;;;;;;;30.73;24.10;;;6.30;99.90;;;;;;4995790;28;20270;-77
2022/12/21 07:34:18;;;;;;;33.87;24.97;;;6.20;99.90;;;;;;4995907;28;20215;-76
2022/12/21 07:36:45;;;;;;;36.77;25.97;;;6.20;99.90;;;;;;4995704;28;20660;-77
2022/12/21 07:39:11;;;;;;;35.07;23.80;;;6.20;99.90;;;;;;4995693;28;20200;-75
2022/12/21 07:41:38;;;;;;;33.63;25.20;;;6.10;99.90;;;;;;4996163;28;20204;-77
2022/12/21 07:44:06;;;;;;;32.90;25.10;;;6.10;99.90;;;;;;4995713;28;20200;-76
2022/12/21 07:46:33;;;;;;;34.27;25.43;;;6.10;99.90;;;;;;4995342;28;20570;-76
2022/12/21 07:48:59;;;;;;;37.43;25.30;;;6.10;99.90;;;;;;4995568;28;20266;-77
2022/12/21 07:51:26;;;;;;;35.37;25.43;;;6.10;99.90;;;;;;4995260;28;20274;-77
2022/12/21 07:53:52;;;;;;;36.83;27.17;;;6.10;99.90;;;;;;4995179;28;20208;-77
2022/12/21 07:56:19;;;;;;;34.97;24.20;;;6.10;99.90;;;;;;4995017;28;20204;-77
2022/12/21 07:58:46;;;;;;;32.33;24.37;;;6.20;99.90;;;;;;4994844;28;20266;-78
2022/12/21 08:01:16;;;;;;;33.43;24.63;;;6.10;99.90;;;;;;5032037;28;20195;-78
2022/12/21 08:03:44;;;;;;;32.60;23.20;;;6.10;99.90;;;;;;4995556;28;20774;-77
2022/12/21 08:06:11;;;;;;;30.70;23.30;;;6.10;99.90;;;;;;4994799;28;20656;-77
2022/12/21 08:08:39;;;;;;;32.00;23.47;;;6.20;99.90;;;;;;4994832;28;20559;-77
2022/12/21 08:11:11;;;;;;;29.37;21.73;;;6.20;99.90;;;;;;4995165;28;20223;-77
2022/12/21 08:13:38;;;;;;;30.77;22.53;;;6.20;99.90;;;;;;4995004;28;20257;-76
2022/12/21 08:16:07;;;;;;;28.07;21.80;;;6.20;99.90;;;;;;4994696;28;20250;-77
2022/12/21 08:18:35;;;;;;;28.10;21.90;;;6.20;99.90;;;;;;4994838;28;20261;-87
2022/12/21 08:21:01;;;;;;;29.43;20.40;;;6.20;99.90;;;;;;4994579;28;20579;-78
2022/12/21 08:23:28;;;;;;;28.13;21.30;;;6.30;99.90;;;;;;4994571;28;20560;-77
2022/12/21 08:25:55;;;;;;;25.90;19.93;;;6.30;99.90;;;;;;4994897;28;20196;-77
2022/12/21 08:28:21;;;;;;;24.70;18.23;;;6.20;99.90;;;;;;4994416;28;20688;-77
2022/12/21 08:30:48;;;;;;;23.93;19.07;;;6.20;99.90;;;;;;4994218;28;20558;-76
2022/12/21 08:33:14;;;;;;;22.83;19.17;;;6.20;99.90;;;;;;4994569;28;20195;-77
2022/12/21 08:35:44;;;;;;;28.87;19.47;;;6.20;99.90;;;;;;4994596;28;20251;-77
2022/12/21 08:38:11;;;;;;;26.47;19.43;;;6.20;99.90;;;;;;4994782;28;20207;-74
2022/12/21 08:40:38;;;;;;;24.30;18.97;;;6.20;99.90;;;;;;4994570;28;20200;-74
2022/12/21 08:43:04;;;;;;;24.33;17.67;;;6.30;99.90;;;;;;4994541;28;20665;-75
2022/12/21 08:45:32;;;;;;;24.70;19.03;;;6.30;99.90;;;;;;4994318;28;20228;-75
2022/12/21 08:47:59;;;;;;;25.57;18.17;;;6.40;99.90;;;;;;4994259;28;20258;-75
2022/12/21 08:50:25;;;;;;;23.53;18.37;;;6.40;99.90;;;;;;4994219;28;20274;-76
2022/12/21 08:52:53;;;;;;;27.53;18.83;;;6.40;99.90;;;;;;4994230;28;20282;-76
2022/12/21 08:55:20;;;;;;;23.83;18.17;;;6.40;99.90;;;;;;4994199;28;20651;-76
2022/12/21 08:57:46;;;;;;;22.87;17.47;;;6.40;99.90;;;;;;4994139;28;20572;-75
2022/12/21 09:00:14;;;;;;;25.30;17.30;;;6.40;99.90;;;;;;4994207;28;20200;-75
2022/12/21 09:02:40;;;;;;;25.83;18.00;;;6.40;99.90;;;;;;4994061;28;20200;-75
2022/12/21 09:05:07;;;;;;;28.40;18.70;;;6.50;99.90;;;;;;4993914;28;20567;-76
2022/12/21 09:07:34;;;;;;;25.97;18.50;;;6.50;99.90;;;;;;4994138;28;20200;-76
2022/12/21 09:10:02;;;;;;;23.30;17.30;;;6.50;99.90;;;;;;4993946;28;20564;-76
2022/12/21 09:12:29;;;;;;;24.43;17.80;;;6.50;99.90;;;;;;4993951;28;20223;-76
2022/12/21 09:14:55;;;;;;;24.80;18.40;;;6.50;99.90;;;;;;4993688;28;20223;-79
2022/12/21 09:17:22;;;;;;;25.00;17.23;;;6.60;99.90;;;;;;4993858;28;20199;-76
2022/12/21 09:19:49;;;;;;;22.77;17.80;;;6.60;99.90;;;;;;4994069;28;20263;-76
2022/12/21 09:22:16;;;;;;;23.47;18.57;;;6.60;99.90;;;;;;4993940;28;20200;-76
2022/12/21 09:24:42;;;;;;;24.57;19.70;;;6.60;99.90;;;;;;4993959;28;20250;-76
2022/12/21 09:27:10;;;;;;;22.93;18.67;;;6.60;99.90;;;;;;4993614;28;20204;-76
2022/12/21 09:29:37;;;;;;;29.33;20.13;;;6.70;99.90;;;;;;4993786;28;20553;-80
2022/12/21 09:32:04;;;;;;;25.00;18.37;;;6.70;99.90;;;;;;4995081;28;20226;-82
2022/12/21 09:34:30;;;;;;;22.37;18.80;;;6.80;99.90;;;;;;4994716;28;20198;-83
2022/12/21 09:36:59;;;;;;;20.80;16.37;;;6.70;99.90;;;;;;4993674;28;20745;-78
2022/12/21 09:39:25;;;;;;;24.47;17.50;;;6.70;99.90;;;;;;4994179;28;20200;-79
2022/12/21 09:42:03;;;;;;;21.10;16.83;;;6.70;99.90;;;;;;4994074;28;20266;-79
2022/12/21 09:44:59;;;;;;;24.60;17.70;;;6.70;99.90;;;;;;4993378;28;20217;-79
2022/12/21 09:47:32;;;;;;;21.73;16.23;;;6.70;99.90;;;;;;4993097;28;20718;-78
2022/12/21 09:50:01;;;;;;;21.43;16.60;;;6.80;99.90;;;;;;4993762;28;20237;-79
2022/12/21 09:52:32;;;;;;;20.43;16.17;;;6.80;99.90;;;;;;4993415;28;20275;-80
2022/12/21 09:55:02;;;;;;;20.20;16.23;;;6.80;99.90;;;;;;4993487;28;20203;-79
2022/12/21 09:57:33;;;;;;;28.67;19.50;;;6.80;99.90;;;;;;4993335;28;20197;-76
2022/12/21 10:00:04;;;;;;;21.57;17.47;;;6.80;99.90;;;;;;4993298;28;20199;-75
2022/12/21 10:02:56;;;;;;;21.90;16.90;;;6.80;99.90;;;;;;4993275;28;20202;-76
2022/12/21 10:05:35;;;;;;;21.93;16.87;;;6.80;99.90;;;;;;4966375;28;20559;-75
2022/12/21 10:08:25;;;;;;;19.57;16.80;;;6.90;99.90;;;;;;4993379;28;20200;-76
2022/12/21 10:11:00;;;;;;;20.33;16.10;;;7.00;99.90;;;;;;4993098;28;20200;-76
2022/12/21 10:13:37;;;;;;;19.73;15.77;;;7.10;99.90;;;;;;4992949;28;20591;-76
2022/12/21 10:16:17;;;;;;;19.60;15.37;;;7.20;99.90;;;;;;4993039;28;20195;-75
2022/12/21 10:18:54;;;;;;;17.70;14.10;;;7.20;99.90;;;;;;4992986;28;20195;-75
2022/12/21 10:21:31;;;;;;;21.23;16.37;;;7.30;99.90;;;;;;4993052;28;20203;-76
2022/12/21 10:23:59;;;;;;;17.73;14.90;;;7.30;99.90;;;;;;4992930;28;20214;-75
2022/12/21 10:26:27;;;;;;;17.57;14.30;;;7.40;99.90;;;;;;4993009;28;20227;-76
2022/12/21 10:28:59;;;;;;;16.87;14.00;;;7.40;99.90;;;;;;4993146;28;20246;-78
2022/12/21 10:31:33;;;;;;;17.57;14.53;;;7.40;99.90;;;;;;4993513;28;20199;-83
2022/12/21 10:34:01;;;;;;;16.73;12.73;;;7.40;99.90;;;;;;4993265;28;20716;-83
2022/12/21 10:36:36;;;;;;;17.17;13.93;;;7.40;99.90;;;;;;4993396;28;20203;-78
2022/12/21 10:39:03;;;;;;;20.10;14.43;;;7.50;99.90;;;;;;4996681;28;20675;-79
2022/12/21 10:41:35;;;;;;;15.60;12.67;;;7.50;99.90;;;;;;4993211;28;20200;-77
2022/12/21 10:44:02;;;;;;;17.53;13.43;;;7.50;99.90;;;;;;4992908;28;20714;-77
2022/12/21 10:46:33;;;;;;;19.83;14.13;;;7.50;99.90;;;;;;4993371;28;20228;-77
2022/12/21 10:49:05;;;;;;;17.87;13.83;;;7.50;99.90;;;;;;4992968;28;20207;-77
2022/12/21 10:51:34;;;;;;;15.97;13.47;;;7.50;99.90;;;;;;4999622;28;20195;-77
2022/12/21 10:54:03;;;;;;;19.73;13.33;;;7.60;99.90;;;;;;5011715;28;20195;-78
2022/12/21 10:56:31;;;;;;;15.63;12.50;;;7.60;99.90;;;;;;5011853;28;20241;-78
2022/12/21 10:59:06;;;;;;;18.70;14.57;;;7.70;99.90;;;;;;5013454;28;20207;-80
2022/12/21 11:01:34;;;;;;;19.97;14.90;;;7.70;99.90;;;;;;5014098;28;20195;-80
2022/12/21 11:04:10;;;;;;;19.40;14.07;;;7.70;99.90;;;;;;5016132;28;20198;-79
2022/12/21 11:06:37;;;;;;;21.40;14.93;;;7.70;99.90;;;;;;5015557;28;20191;-78
2022/12/21 11:09:25;;;;;;;16.53;14.03;;;7.70;99.90;;;;;;5015887;28;20208;-79
2022/12/21 11:11:53;;;;;;;18.97;14.23;;;7.70;99.90;;;;;;5015690;28;20607;-80
2022/12/21 11:14:20;;;;;;;18.07;14.83;;;7.70;99.90;;;;;;5014915;28;20207;-80
2022/12/21 11:16:48;;;;;;;17.77;14.10;;;7.70;99.90;;;;;;5015351;28;20199;-78
2022/12/21 11:19:17;;;;;;;17.77;14.13;;;7.80;99.90;;;;;;5015544;28;20249;-78
2022/12/21 11:21:47;;;;;;;16.07;13.30;;;7.80;99.90;;;;;;5015102;28;20234;-78
2022/12/21 11:24:17;;;;;;;17.73;13.60;;;7.90;99.90;;;;;;5015330;28;20269;-78
2022/12/21 11:26:46;;;;;;;18.90;14.60;;;8.00;99.90;;;;;;5015131;28;20188;-80
2022/12/21 11:29:18;;;;;;;18.13;14.17;;;8.00;99.90;;;;;;5016022;28;20198;-81
2022/12/21 11:31:50;;;;;;;16.03;13.57;;;8.20;99.90;;;;;;5015306;28;20201;-80
2022/12/21 11:34:29;;;;;;;15.80;13.10;;;8.40;99.90;;;;;;5015261;28;20228;-79
2022/12/21 11:36:57;;;;;;;13.10;11.20;;;8.50;99.90;;;;;;5015062;28;20198;-79
2022/12/21 11:39:24;;;;;;;16.00;12.40;;;8.50;99.90;;;;;;5015504;28;20203;-78
2022/12/21 11:41:51;;;;;;;16.30;12.47;;;8.50;99.90;;;;;;5015030;28;20201;-77
2022/12/21 11:44:23;;;;;;;46.83;31.53;;;8.60;99.90;;;;;;5014867;28;20199;-79
2022/12/21 11:47:02;;;;;;;32.47;23.23;;;8.70;99.90;;;;;;5009620;28;20227;-78
2022/12/21 11:49:47;;;;;;;14.93;11.47;;;8.80;99.90;;;;;;5006406;28;20257;-77
2022/12/21 11:52:24;;;;;;;15.93;13.37;;;8.70;99.90;;;;;;5014803;28;20618;-76
2022/12/21 11:55:03;;;;;;;15.27;11.77;;;8.80;99.90;;;;;;5015020;28;20249;-76
2022/12/21 11:57:41;;;;;;;12.63;11.33;;;8.90;99.90;;;;;;5015057;28;20198;-75
2022/12/21 12:00:10;;;;;;;13.53;10.80;;;8.90;99.90;;;;;;5015056;28;20190;-76
2022/12/21 12:03:16;;;;;;;14.37;11.13;;;8.80;99.90;;;;;;5014842;28;20242;-76
2022/12/21 12:05:56;;;;;;;12.77;10.90;;;8.80;99.90;;;;;;5007776;28;20205;-77
2022/12/21 12:08:38;;;;;;;12.73;10.40;;;9.20;99.90;;;;;;5011531;28;20625;-76
2022/12/21 12:11:21;;;;;;;11.07;9.80;;;9.60;99.90;;;;;;5014025;28;20709;-79
2022/12/21 12:14:01;;;;;;;11.13;9.80;;;9.30;99.90;;;;;;5014261;28;20227;-77
2022/12/21 12:16:34;;;;;;;11.80;9.60;;;9.20;99.90;;;;;;5014365;28;20203;-76
2022/12/21 12:19:12;;;;;;;11.03;9.83;;;9.10;99.90;;;;;;5014071;28;20203;-78
2022/12/21 12:21:57;;;;;;;11.67;9.63;;;9.00;99.90;;;;;;5014080;28;20547;-76
2022/12/21 12:24:54;;;;;;;11.37;9.87;;;9.00;99.90;;;;;;5014465;28;20194;-76
2022/12/21 12:27:31;;;;;;;11.10;9.67;;;8.90;99.90;;;;;;5014367;28;20203;-76
2022/12/21 12:30:05;;;;;;;10.50;9.20;;;8.90;99.90;;;;;;5014066;28;20684;-76
2022/12/21 12:33:03;;;;;;;12.63;8.83;;;8.90;99.90;;;;;;5013863;28;20229;-76
2022/12/21 12:35:51;;;;;;;10.50;9.17;;;9.00;99.90;;;;;;5012156;28;20214;-76
2022/12/21 12:38:25;;;;;;;10.37;8.97;;;9.00;99.90;;;;;;5013682;28;20195;-76
2022/12/21 12:41:16;;;;;;;9.50;8.50;;;9.00;99.90;;;;;;5013827;28;20195;-76
2022/12/21 12:43:54;;;;;;;10.43;8.80;;;9.00;99.90;;;;;;5011084;28;20571;-77
2022/12/21 12:46:29;;;;;;;10.77;9.67;;;9.00;99.90;;;;;;5011176;28;20237;-77
2022/12/21 12:49:10;;;;;;;10.27;9.20;;;9.00;99.90;;;;;;5011059;28;20614;-77
2022/12/21 12:51:43;;;;;;;16.93;11.90;;;9.20;99.90;;;;;;5013550;28;20199;-77
2022/12/21 12:54:18;;;;;;;14.83;11.80;;;9.20;99.90;;;;;;5013720;28;20223;-75
2022/12/21 12:56:54;;;;;;;13.80;9.43;;;9.20;99.90;;;;;;5014122;28;20608;-75
2022/12/21 12:59:26;;;;;;;9.67;8.13;;;9.20;99.90;;;;;;5014024;28;20613;-76
2022/12/21 13:02:00;;;;;;;9.73;8.40;;;9.20;99.90;;;;;;5014009;28;20203;-76
2022/12/21 13:04:44;;;;;;;9.60;8.20;;;9.40;99.90;;;;;;5013798;28;20214;-75
2022/12/21 13:07:21;;;;;;;8.13;7.33;;;10.00;99.90;;;;;;5014014;28;20199;-77
2022/12/21 13:09:59;;;;;;;7.20;6.53;;;13.30;99.90;;;;;;5013941;28;20210;-76
2022/12/21 13:12:35;;;;;;;5.37;4.20;;;17.30;99.90;;;;;;5013505;28;20198;-77